sensor_id;sensor_type;location;lat;lon;timestamp;P1;durP1;ratioP1;P2;durP2;ratioP2
25073;SDS011;13066;52.042;5.648;2023-06-22T00:02:24;6.20;;;4.57;;
25073;SDS011;13066;52.042;5.648;2023-06-22T00:04:53;10.82;;;4.65;;
25073;SDS011;13066;52.042;5.648;2023-06-22T00:07:20;8.18;;;4.90;;
25073;SDS011;13066;52.042;5.648;2023-06-22T00:09:50;7.32;;;4.30;;
25073;SDS011;13066;52.042;5.648;2023-06-22T00:12:18;7.10;;;4.15;;
25073;SDS011;13066;52.042;5.648;2023-06-22T00:14:46;5.70;;;4.60;;
25073;SDS011;13066;52.042;5.648;2023-06-22T00:17:13;6.93;;;4.72;;
25073;SDS011;13066;52.042;5.648;2023-06-22T00:19:41;7.07;;;4.78;;
25073;SDS011;13066;52.042;5.648;2023-06-22T00:22:10;6.47;;;4.65;;
25073;SDS011;13066;52.042;5.648;2023-06-22T00:24:37;7.75;;;4.25;;
25073;SDS011;13066;52.042;5.648;2023-06-22T00:27:07;8.07;;;4.90;;
25073;SDS011;13066;52.042;5.648;2023-06-22T00:29:36;11.90;;;4.85;;
25073;SDS011;13066;52.042;5.648;2023-06-22T00:32:04;9.75;;;4.95;;
25073;SDS011;13066;52.042;5.648;2023-06-22T00:34:32;7.20;;;4.63;;
25073;SDS011;13066;52.042;5.648;2023-06-22T00:37:00;8.02;;;4.22;;
25073;SDS011;13066;52.042;5.648;2023-06-22T00:39:29;10.23;;;5.05;;
25073;SDS011;13066;52.042;5.648;2023-06-22T00:41:57;8.13;;;5.28;;
25073;SDS011;13066;52.042;5.648;2023-06-22T00:44:30;8.32;;;4.80;;
25073;SDS011;13066;52.042;5.648;2023-06-22T00:46:58;8.10;;;4.93;;
25073;SDS011;13066;52.042;5.648;2023-06-22T00:49:27;7.32;;;4.85;;
25073;SDS011;13066;52.042;5.648;2023-06-22T00:51:56;8.32;;;5.45;;
25073;SDS011;13066;52.042;5.648;2023-06-22T00:54:26;7.35;;;4.82;;
25073;SDS011;13066;52.042;5.648;2023-06-22T00:56:55;7.35;;;4.80;;
25073;SDS011;13066;52.042;5.648;2023-06-22T00:59:24;9.40;;;5.20;;
25073;SDS011;13066;52.042;5.648;2023-06-22T01:01:54;8.38;;;5.35;;
25073;SDS011;13066;52.042;5.648;2023-06-22T01:04:25;10.15;;;5.70;;
25073;SDS011;13066;52.042;5.648;2023-06-22T01:07:03;8.75;;;5.50;;
25073;SDS011;13066;52.042;5.648;2023-06-22T01:09:35;8.95;;;4.93;;
25073;SDS011;13066;52.042;5.648;2023-06-22T01:12:07;7.05;;;5.22;;
25073;SDS011;13066;52.042;5.648;2023-06-22T01:14:37;6.50;;;5.18;;
25073;SDS011;13066;52.042;5.648;2023-06-22T01:17:10;9.23;;;5.10;;
25073;SDS011;13066;52.042;5.648;2023-06-22T01:19:43;6.97;;;5.15;;
25073;SDS011;13066;52.042;5.648;2023-06-22T01:22:15;8.98;;;5.45;;
25073;SDS011;13066;52.042;5.648;2023-06-22T01:24:47;8.10;;;5.40;;
25073;SDS011;13066;52.042;5.648;2023-06-22T01:27:23;8.57;;;5.00;;
25073;SDS011;13066;52.042;5.648;2023-06-22T01:29:59;7.00;;;5.15;;
25073;SDS011;13066;52.042;5.648;2023-06-22T01:32:28;7.20;;;5.28;;
25073;SDS011;13066;52.042;5.648;2023-06-22T01:35:00;7.65;;;4.90;;
25073;SDS011;13066;52.042;5.648;2023-06-22T01:37:30;7.57;;;5.20;;
25073;SDS011;13066;52.042;5.648;2023-06-22T01:39:58;8.55;;;5.68;;
25073;SDS011;13066;52.042;5.648;2023-06-22T01:42:27;8.77;;;5.20;;
25073;SDS011;13066;52.042;5.648;2023-06-22T01:44:55;9.75;;;5.38;;
25073;SDS011;13066;52.042;5.648;2023-06-22T01:47:25;10.80;;;5.55;;
25073;SDS011;13066;52.042;5.648;2023-06-22T01:49:54;9.02;;;5.95;;
25073;SDS011;13066;52.042;5.648;2023-06-22T01:52:22;8.57;;;5.70;;
25073;SDS011;13066;52.042;5.648;2023-06-22T01:54:50;6.60;;;5.18;;
25073;SDS011;13066;52.042;5.648;2023-06-22T01:57:18;7.97;;;5.38;;
25073;SDS011;13066;52.042;5.648;2023-06-22T01:59:48;9.30;;;6.03;;
25073;SDS011;13066;52.042;5.648;2023-06-22T02:02:19;8.98;;;5.85;;
25073;SDS011;13066;52.042;5.648;2023-06-22T02:04:54;9.05;;;5.75;;
25073;SDS011;13066;52.042;5.648;2023-06-22T02:07:24;10.00;;;5.75;;
25073;SDS011;13066;52.042;5.648;2023-06-22T02:09:56;7.35;;;5.70;;
25073;SDS011;13066;52.042;5.648;2023-06-22T02:12:25;8.93;;;5.43;;
25073;SDS011;13066;52.042;5.648;2023-06-22T02:14:54;10.52;;;6.18;;
25073;SDS011;13066;52.042;5.648;2023-06-22T02:17:24;9.63;;;6.03;;
25073;SDS011;13066;52.042;5.648;2023-06-22T02:19:53;8.10;;;6.07;;
25073;SDS011;13066;52.042;5.648;2023-06-22T02:22:21;9.57;;;5.80;;
25073;SDS011;13066;52.042;5.648;2023-06-22T02:24:50;10.07;;;6.13;;
25073;SDS011;13066;52.042;5.648;2023-06-22T02:27:19;10.40;;;6.82;;
25073;SDS011;13066;52.042;5.648;2023-06-22T02:29:47;11.57;;;5.97;;
25073;SDS011;13066;52.042;5.648;2023-06-22T02:32:15;8.98;;;6.15;;
25073;SDS011;13066;52.042;5.648;2023-06-22T02:34:47;8.93;;;6.47;;
25073;SDS011;13066;52.042;5.648;2023-06-22T02:37:15;10.65;;;6.82;;
25073;SDS011;13066;52.042;5.648;2023-06-22T02:39:43;8.02;;;6.43;;
25073;SDS011;13066;52.042;5.648;2023-06-22T02:42:11;9.07;;;6.25;;
25073;SDS011;13066;52.042;5.648;2023-06-22T02:44:41;11.35;;;6.93;;
25073;SDS011;13066;52.042;5.648;2023-06-22T02:47:09;10.25;;;6.65;;
25073;SDS011;13066;52.042;5.648;2023-06-22T02:49:38;12.10;;;6.53;;
25073;SDS011;13066;52.042;5.648;2023-06-22T02:52:08;9.98;;;6.95;;
25073;SDS011;13066;52.042;5.648;2023-06-22T02:54:36;9.65;;;7.00;;
25073;SDS011;13066;52.042;5.648;2023-06-22T02:57:04;8.07;;;6.45;;
25073;SDS011;13066;52.042;5.648;2023-06-22T02:59:32;10.88;;;7.25;;
25073;SDS011;13066;52.042;5.648;2023-06-22T03:02:07;11.27;;;7.30;;
25073;SDS011;13066;52.042;5.648;2023-06-22T03:04:35;10.43;;;7.35;;
25073;SDS011;13066;52.042;5.648;2023-06-22T03:07:03;10.35;;;7.35;;
25073;SDS011;13066;52.042;5.648;2023-06-22T03:09:34;8.93;;;7.05;;
25073;SDS011;13066;52.042;5.648;2023-06-22T03:12:03;11.35;;;7.57;;
25073;SDS011;13066;52.042;5.648;2023-06-22T03:14:52;10.13;;;7.22;;
25073;SDS011;13066;52.042;5.648;2023-06-22T03:17:20;12.18;;;7.68;;
25073;SDS011;13066;52.042;5.648;2023-06-22T03:19:49;12.52;;;7.65;;
25073;SDS011;13066;52.042;5.648;2023-06-22T03:22:17;10.60;;;7.28;;
25073;SDS011;13066;52.042;5.648;2023-06-22T03:24:46;14.48;;;7.50;;
25073;SDS011;13066;52.042;5.648;2023-06-22T03:27:14;11.95;;;7.97;;
25073;SDS011;13066;52.042;5.648;2023-06-22T03:29:42;12.20;;;7.53;;
25073;SDS011;13066;52.042;5.648;2023-06-22T03:32:11;11.82;;;7.25;;
25073;SDS011;13066;52.042;5.648;2023-06-22T03:34:39;8.68;;;7.00;;
25073;SDS011;13066;52.042;5.648;2023-06-22T03:37:07;10.27;;;7.97;;
25073;SDS011;13066;52.042;5.648;2023-06-22T03:39:35;11.30;;;7.97;;
25073;SDS011;13066;52.042;5.648;2023-06-22T03:42:05;13.15;;;8.27;;
25073;SDS011;13066;52.042;5.648;2023-06-22T03:44:33;11.20;;;8.10;;
25073;SDS011;13066;52.042;5.648;2023-06-22T03:47:04;11.43;;;8.00;;
25073;SDS011;13066;52.042;5.648;2023-06-22T03:49:35;13.25;;;8.30;;
25073;SDS011;13066;52.042;5.648;2023-06-22T03:52:03;11.68;;;8.45;;
25073;SDS011;13066;52.042;5.648;2023-06-22T03:54:32;10.70;;;8.63;;
25073;SDS011;13066;52.042;5.648;2023-06-22T03:57:00;12.52;;;8.48;;
25073;SDS011;13066;52.042;5.648;2023-06-22T03:59:29;11.23;;;9.15;;
25073;SDS011;13066;52.042;5.648;2023-06-22T04:01:58;12.23;;;9.70;;
25073;SDS011;13066;52.042;5.648;2023-06-22T04:04:27;11.55;;;8.05;;
25073;SDS011;13066;52.042;5.648;2023-06-22T04:06:55;16.10;;;10.13;;
25073;SDS011;13066;52.042;5.648;2023-06-22T04:09:23;17.08;;;10.40;;
25073;SDS011;13066;52.042;5.648;2023-06-22T04:11:51;16.08;;;10.88;;
25073;SDS011;13066;52.042;5.648;2023-06-22T04:14:19;14.07;;;9.75;;
25073;SDS011;13066;52.042;5.648;2023-06-22T04:16:48;15.88;;;10.05;;
25073;SDS011;13066;52.042;5.648;2023-06-22T04:19:16;13.85;;;9.40;;
25073;SDS011;13066;52.042;5.648;2023-06-22T04:21:44;13.35;;;9.85;;
25073;SDS011;13066;52.042;5.648;2023-06-22T04:24:15;14.05;;;9.95;;
25073;SDS011;13066;52.042;5.648;2023-06-22T04:26:43;16.02;;;12.02;;
25073;SDS011;13066;52.042;5.648;2023-06-22T04:29:14;17.33;;;11.23;;
25073;SDS011;13066;52.042;5.648;2023-06-22T04:31:42;21.33;;;12.18;;
25073;SDS011;13066;52.042;5.648;2023-06-22T04:34:11;20.27;;;12.55;;
25073;SDS011;13066;52.042;5.648;2023-06-22T04:36:43;15.57;;;11.00;;
25073;SDS011;13066;52.042;5.648;2023-06-22T04:39:11;16.63;;;10.90;;
25073;SDS011;13066;52.042;5.648;2023-06-22T04:41:40;18.52;;;12.35;;
25073;SDS011;13066;52.042;5.648;2023-06-22T04:44:11;16.67;;;11.52;;
25073;SDS011;13066;52.042;5.648;2023-06-22T04:46:39;17.25;;;12.40;;
25073;SDS011;13066;52.042;5.648;2023-06-22T04:49:08;17.98;;;14.48;;
25073;SDS011;13066;52.042;5.648;2023-06-22T04:51:39;19.65;;;15.18;;
25073;SDS011;13066;52.042;5.648;2023-06-22T04:54:08;22.27;;;15.25;;
25073;SDS011;13066;52.042;5.648;2023-06-22T04:56:37;22.77;;;15.40;;
25073;SDS011;13066;52.042;5.648;2023-06-22T04:59:07;24.10;;;17.40;;
25073;SDS011;13066;52.042;5.648;2023-06-22T05:01:39;23.60;;;16.50;;
25073;SDS011;13066;52.042;5.648;2023-06-22T05:04:07;24.58;;;17.70;;
25073;SDS011;13066;52.042;5.648;2023-06-22T05:06:36;28.58;;;18.77;;
25073;SDS011;13066;52.042;5.648;2023-06-22T05:09:08;28.58;;;18.40;;
25073;SDS011;13066;52.042;5.648;2023-06-22T05:11:36;26.60;;;19.98;;
25073;SDS011;13066;52.042;5.648;2023-06-22T05:14:04;28.92;;;19.60;;
25073;SDS011;13066;52.042;5.648;2023-06-22T05:16:32;27.95;;;18.70;;
25073;SDS011;13066;52.042;5.648;2023-06-22T05:19:00;26.55;;;20.30;;
25073;SDS011;13066;52.042;5.648;2023-06-22T05:21:30;30.75;;;19.90;;
25073;SDS011;13066;52.042;5.648;2023-06-22T05:23:58;29.13;;;21.05;;
25073;SDS011;13066;52.042;5.648;2023-06-22T05:26:31;29.00;;;20.90;;
25073;SDS011;13066;52.042;5.648;2023-06-22T05:29:00;43.53;;;20.48;;
25073;SDS011;13066;52.042;5.648;2023-06-22T05:31:29;29.45;;;21.30;;
25073;SDS011;13066;52.042;5.648;2023-06-22T05:33:57;30.58;;;19.58;;
25073;SDS011;13066;52.042;5.648;2023-06-22T05:36:26;26.98;;;17.90;;
25073;SDS011;13066;52.042;5.648;2023-06-22T05:38:56;30.15;;;21.40;;
25073;SDS011;13066;52.042;5.648;2023-06-22T05:41:24;27.35;;;20.75;;
25073;SDS011;13066;52.042;5.648;2023-06-22T05:43:53;27.25;;;20.80;;
25073;SDS011;13066;52.042;5.648;2023-06-22T05:46:22;27.02;;;20.00;;
25073;SDS011;13066;52.042;5.648;2023-06-22T05:48:50;29.60;;;21.38;;
25073;SDS011;13066;52.042;5.648;2023-06-22T05:51:18;30.15;;;21.50;;
25073;SDS011;13066;52.042;5.648;2023-06-22T05:53:46;26.95;;;18.58;;
25073;SDS011;13066;52.042;5.648;2023-06-22T05:56:16;25.75;;;18.33;;
25073;SDS011;13066;52.042;5.648;2023-06-22T05:58:45;22.42;;;17.15;;
25073;SDS011;13066;52.042;5.648;2023-06-22T06:01:14;26.95;;;18.05;;
25073;SDS011;13066;52.042;5.648;2023-06-22T06:03:43;32.13;;;19.55;;
25073;SDS011;13066;52.042;5.648;2023-06-22T06:06:11;23.95;;;17.48;;
25073;SDS011;13066;52.042;5.648;2023-06-22T06:08:39;23.35;;;16.23;;
25073;SDS011;13066;52.042;5.648;2023-06-22T06:11:07;23.92;;;15.52;;
25073;SDS011;13066;52.042;5.648;2023-06-22T06:13:35;18.02;;;14.57;;
25073;SDS011;13066;52.042;5.648;2023-06-22T06:16:03;21.60;;;16.35;;
25073;SDS011;13066;52.042;5.648;2023-06-22T06:18:33;24.17;;;15.63;;
25073;SDS011;13066;52.042;5.648;2023-06-22T06:21:01;25.27;;;15.52;;
25073;SDS011;13066;52.042;5.648;2023-06-22T06:23:29;25.55;;;17.27;;
25073;SDS011;13066;52.042;5.648;2023-06-22T06:25:57;23.48;;;15.73;;
25073;SDS011;13066;52.042;5.648;2023-06-22T06:28:25;20.83;;;16.13;;
25073;SDS011;13066;52.042;5.648;2023-06-22T06:30:53;18.75;;;14.50;;
25073;SDS011;13066;52.042;5.648;2023-06-22T06:33:21;18.58;;;14.57;;
25073;SDS011;13066;52.042;5.648;2023-06-22T06:35:53;19.58;;;14.15;;
25073;SDS011;13066;52.042;5.648;2023-06-22T06:38:22;18.73;;;13.55;;
25073;SDS011;13066;52.042;5.648;2023-06-22T06:40:50;17.60;;;13.10;;
25073;SDS011;13066;52.042;5.648;2023-06-22T06:43:18;16.20;;;12.40;;
25073;SDS011;13066;52.042;5.648;2023-06-22T06:45:46;23.67;;;13.07;;
25073;SDS011;13066;52.042;5.648;2023-06-22T06:48:17;18.92;;;12.70;;
25073;SDS011;13066;52.042;5.648;2023-06-22T06:50:45;16.90;;;11.30;;
25073;SDS011;13066;52.042;5.648;2023-06-22T06:53:15;20.70;;;12.80;;
25073;SDS011;13066;52.042;5.648;2023-06-22T06:55:43;14.10;;;10.05;;
25073;SDS011;13066;52.042;5.648;2023-06-22T06:58:12;13.45;;;9.88;;
25073;SDS011;13066;52.042;5.648;2023-06-22T07:00:40;18.73;;;10.15;;
25073;SDS011;13066;52.042;5.648;2023-06-22T07:03:08;13.15;;;9.48;;
25073;SDS011;13066;52.042;5.648;2023-06-22T07:05:36;14.48;;;9.35;;
25073;SDS011;13066;52.042;5.648;2023-06-22T07:08:04;13.48;;;9.20;;
25073;SDS011;13066;52.042;5.648;2023-06-22T07:10:34;12.68;;;7.65;;
25073;SDS011;13066;52.042;5.648;2023-06-22T07:13:02;10.80;;;7.38;;
25073;SDS011;13066;52.042;5.648;2023-06-22T07:15:30;9.00;;;7.72;;
25073;SDS011;13066;52.042;5.648;2023-06-22T07:17:58;12.00;;;7.05;;
25073;SDS011;13066;52.042;5.648;2023-06-22T07:20:26;10.40;;;6.90;;
25073;SDS011;13066;52.042;5.648;2023-06-22T07:22:54;9.05;;;7.03;;
25073;SDS011;13066;52.042;5.648;2023-06-22T07:25:22;9.15;;;6.32;;
25073;SDS011;13066;52.042;5.648;2023-06-22T07:27:58;11.07;;;6.60;;
25073;SDS011;13066;52.042;5.648;2023-06-22T07:30:27;11.15;;;6.82;;
25073;SDS011;13066;52.042;5.648;2023-06-22T07:32:56;11.13;;;6.68;;
25073;SDS011;13066;52.042;5.648;2023-06-22T07:35:30;10.82;;;6.25;;
25073;SDS011;13066;52.042;5.648;2023-06-22T07:37:58;11.02;;;5.68;;
25073;SDS011;13066;52.042;5.648;2023-06-22T07:40:30;9.43;;;6.30;;
25073;SDS011;13066;52.042;5.648;2023-06-22T07:43:00;10.85;;;6.18;;
25073;SDS011;13066;52.042;5.648;2023-06-22T07:45:28;9.20;;;6.60;;
25073;SDS011;13066;52.042;5.648;2023-06-22T07:47:56;9.95;;;5.90;;
25073;SDS011;13066;52.042;5.648;2023-06-22T07:50:24;10.75;;;5.65;;
25073;SDS011;13066;52.042;5.648;2023-06-22T07:52:52;13.45;;;6.90;;
25073;SDS011;13066;52.042;5.648;2023-06-22T07:55:20;11.52;;;6.25;;
25073;SDS011;13066;52.042;5.648;2023-06-22T07:57:48;10.27;;;6.20;;
25073;SDS011;13066;52.042;5.648;2023-06-22T08:00:20;9.68;;;5.50;;
25073;SDS011;13066;52.042;5.648;2023-06-22T08:02:48;8.50;;;5.90;;
25073;SDS011;13066;52.042;5.648;2023-06-22T08:05:16;13.63;;;6.97;;
25073;SDS011;13066;52.042;5.648;2023-06-22T08:07:48;8.63;;;6.40;;
25073;SDS011;13066;52.042;5.648;2023-06-22T08:10:17;10.68;;;6.90;;
25073;SDS011;13066;52.042;5.648;2023-06-22T08:12:45;9.63;;;6.70;;
25073;SDS011;13066;52.042;5.648;2023-06-22T08:15:12;8.27;;;5.72;;
25073;SDS011;13066;52.042;5.648;2023-06-22T08:17:43;11.73;;;7.18;;
25073;SDS011;13066;52.042;5.648;2023-06-22T08:20:11;9.45;;;5.95;;
25073;SDS011;13066;52.042;5.648;2023-06-22T08:22:39;9.10;;;5.90;;
25073;SDS011;13066;52.042;5.648;2023-06-22T08:25:08;8.82;;;6.68;;
25073;SDS011;13066;52.042;5.648;2023-06-22T08:27:36;9.38;;;5.35;;
25073;SDS011;13066;52.042;5.648;2023-06-22T08:30:06;10.48;;;6.85;;
25073;SDS011;13066;52.042;5.648;2023-06-22T08:32:34;9.38;;;6.05;;
25073;SDS011;13066;52.042;5.648;2023-06-22T08:35:04;7.22;;;5.60;;
25073;SDS011;13066;52.042;5.648;2023-06-22T08:37:34;9.27;;;5.97;;
25073;SDS011;13066;52.042;5.648;2023-06-22T08:40:03;8.65;;;6.07;;
25073;SDS011;13066;52.042;5.648;2023-06-22T08:42:34;7.60;;;5.20;;
25073;SDS011;13066;52.042;5.648;2023-06-22T08:45:02;11.32;;;5.70;;
25073;SDS011;13066;52.042;5.648;2023-06-22T08:47:31;7.65;;;6.05;;
25073;SDS011;13066;52.042;5.648;2023-06-22T08:49:59;9.85;;;6.20;;
25073;SDS011;13066;52.042;5.648;2023-06-22T08:52:30;12.30;;;5.90;;
25073;SDS011;13066;52.042;5.648;2023-06-22T08:54:58;9.57;;;5.90;;
25073;SDS011;13066;52.042;5.648;2023-06-22T08:57:27;8.30;;;5.13;;
25073;SDS011;13066;52.042;5.648;2023-06-22T08:59:55;9.25;;;5.25;;
25073;SDS011;13066;52.042;5.648;2023-06-22T09:02:25;7.28;;;5.53;;
25073;SDS011;13066;52.042;5.648;2023-06-22T09:04:58;8.98;;;5.25;;
25073;SDS011;13066;52.042;5.648;2023-06-22T09:07:26;6.53;;;4.80;;
25073;SDS011;13066;52.042;5.648;2023-06-22T09:09:56;7.75;;;4.70;;
25073;SDS011;13066;52.042;5.648;2023-06-22T09:12:26;9.52;;;4.68;;
25073;SDS011;13066;52.042;5.648;2023-06-22T09:14:57;5.13;;;4.50;;
25073;SDS011;13066;52.042;5.648;2023-06-22T09:17:26;7.38;;;4.60;;
25073;SDS011;13066;52.042;5.648;2023-06-22T09:19:54;6.93;;;4.75;;
25073;SDS011;13066;52.042;5.648;2023-06-22T09:22:22;6.28;;;4.22;;
25073;SDS011;13066;52.042;5.648;2023-06-22T09:24:56;6.78;;;4.10;;
25073;SDS011;13066;52.042;5.648;2023-06-22T09:27:24;6.78;;;4.13;;
25073;SDS011;13066;52.042;5.648;2023-06-22T09:29:52;6.13;;;4.25;;
25073;SDS011;13066;52.042;5.648;2023-06-22T09:32:20;6.22;;;4.35;;
25073;SDS011;13066;52.042;5.648;2023-06-22T09:34:48;5.32;;;3.65;;
25073;SDS011;13066;52.042;5.648;2023-06-22T09:37:16;5.45;;;3.35;;
25073;SDS011;13066;52.042;5.648;2023-06-22T09:39:44;6.90;;;3.60;;
25073;SDS011;13066;52.042;5.648;2023-06-22T09:42:13;6.15;;;4.22;;
25073;SDS011;13066;52.042;5.648;2023-06-22T09:44:41;5.10;;;3.40;;
25073;SDS011;13066;52.042;5.648;2023-06-22T09:47:09;4.53;;;3.65;;
25073;SDS011;13066;52.042;5.648;2023-06-22T09:49:37;8.70;;;4.47;;
25073;SDS011;13066;52.042;5.648;2023-06-22T09:52:13;8.07;;;3.50;;
25073;SDS011;13066;52.042;5.648;2023-06-22T09:54:41;5.65;;;3.85;;
25073;SDS011;13066;52.042;5.648;2023-06-22T09:57:10;9.35;;;4.30;;
25073;SDS011;13066;52.042;5.648;2023-06-22T09:59:39;7.00;;;3.55;;
25073;SDS011;13066;52.042;5.648;2023-06-22T10:02:07;6.05;;;4.00;;
25073;SDS011;13066;52.042;5.648;2023-06-22T10:04:35;5.45;;;3.67;;
25073;SDS011;13066;52.042;5.648;2023-06-22T10:07:04;4.78;;;3.40;;
25073;SDS011;13066;52.042;5.648;2023-06-22T10:09:32;8.65;;;3.60;;
25073;SDS011;13066;52.042;5.648;2023-06-22T10:12:00;5.90;;;3.83;;
25073;SDS011;13066;52.042;5.648;2023-06-22T10:14:28;4.63;;;3.13;;
25073;SDS011;13066;52.042;5.648;2023-06-22T10:16:58;7.18;;;3.80;;
25073;SDS011;13066;52.042;5.648;2023-06-22T10:19:26;5.78;;;3.63;;
25073;SDS011;13066;52.042;5.648;2023-06-22T10:21:54;5.38;;;3.90;;
25073;SDS011;13066;52.042;5.648;2023-06-22T10:24:22;7.43;;;4.22;;
25073;SDS011;13066;52.042;5.648;2023-06-22T10:26:50;6.10;;;3.90;;
25073;SDS011;13066;52.042;5.648;2023-06-22T10:29:18;7.18;;;3.97;;
25073;SDS011;13066;52.042;5.648;2023-06-22T10:31:46;6.47;;;3.90;;
25073;SDS011;13066;52.042;5.648;2023-06-22T10:34:15;7.18;;;4.30;;
25073;SDS011;13066;52.042;5.648;2023-06-22T10:36:43;7.30;;;4.00;;
25073;SDS011;13066;52.042;5.648;2023-06-22T10:39:14;6.13;;;4.05;;
25073;SDS011;13066;52.042;5.648;2023-06-22T10:41:42;9.50;;;3.88;;
25073;SDS011;13066;52.042;5.648;2023-06-22T10:44:10;5.20;;;3.67;;
25073;SDS011;13066;52.042;5.648;2023-06-22T10:46:38;9.10;;;3.70;;
25073;SDS011;13066;52.042;5.648;2023-06-22T10:49:06;8.35;;;3.67;;
25073;SDS011;13066;52.042;5.648;2023-06-22T10:51:36;9.30;;;4.43;;
25073;SDS011;13066;52.042;5.648;2023-06-22T10:54:04;7.45;;;4.20;;
25073;SDS011;13066;52.042;5.648;2023-06-22T10:56:32;6.65;;;4.53;;
25073;SDS011;13066;52.042;5.648;2023-06-22T10:59:00;6.25;;;4.10;;
25073;SDS011;13066;52.042;5.648;2023-06-22T11:01:28;8.90;;;4.28;;
25073;SDS011;13066;52.042;5.648;2023-06-22T11:04:02;7.23;;;4.33;;
25073;SDS011;13066;52.042;5.648;2023-06-22T11:06:31;10.23;;;3.80;;
25073;SDS011;13066;52.042;5.648;2023-06-22T11:09:00;9.32;;;4.57;;
25073;SDS011;13066;52.042;5.648;2023-06-22T11:11:32;5.37;;;4.27;;
25073;SDS011;13066;52.042;5.648;2023-06-22T11:14:00;5.45;;;4.50;;
25073;SDS011;13066;52.042;5.648;2023-06-22T11:16:28;6.50;;;4.82;;
25073;SDS011;13066;52.042;5.648;2023-06-22T11:18:56;6.15;;;4.43;;
25073;SDS011;13066;52.042;5.648;2023-06-22T11:21:24;12.18;;;5.32;;
25073;SDS011;13066;52.042;5.648;2023-06-22T11:23:52;7.72;;;5.25;;
25073;SDS011;13066;52.042;5.648;2023-06-22T11:26:21;7.68;;;4.85;;
25073;SDS011;13066;52.042;5.648;2023-06-22T11:28:49;7.07;;;4.95;;
25073;SDS011;13066;52.042;5.648;2023-06-22T11:31:17;5.13;;;4.47;;
25073;SDS011;13066;52.042;5.648;2023-06-22T11:33:52;9.50;;;5.10;;
25073;SDS011;13066;52.042;5.648;2023-06-22T11:36:20;8.70;;;5.35;;
25073;SDS011;13066;52.042;5.648;2023-06-22T11:38:48;8.27;;;5.50;;
25073;SDS011;13066;52.042;5.648;2023-06-22T11:41:16;10.27;;;4.65;;
25073;SDS011;13066;52.042;5.648;2023-06-22T11:43:45;11.70;;;6.15;;
25073;SDS011;13066;52.042;5.648;2023-06-22T11:46:13;9.30;;;6.82;;
25073;SDS011;13066;52.042;5.648;2023-06-22T11:48:41;15.25;;;6.75;;
25073;SDS011;13066;52.042;5.648;2023-06-22T11:51:09;16.33;;;7.57;;
25073;SDS011;13066;52.042;5.648;2023-06-22T11:53:37;10.40;;;7.07;;
25073;SDS011;13066;52.042;5.648;2023-06-22T11:56:05;11.65;;;7.50;;
25073;SDS011;13066;52.042;5.648;2023-06-22T11:58:35;10.98;;;7.78;;
25073;SDS011;13066;52.042;5.648;2023-06-22T12:01:05;11.13;;;7.57;;
25073;SDS011;13066;52.042;5.648;2023-06-22T12:03:33;10.02;;;6.90;;
25073;SDS011;13066;52.042;5.648;2023-06-22T12:06:01;11.23;;;7.57;;
25073;SDS011;13066;52.042;5.648;2023-06-22T12:08:29;12.10;;;7.88;;
25073;SDS011;13066;52.042;5.648;2023-06-22T12:10:57;10.48;;;7.53;;
25073;SDS011;13066;52.042;5.648;2023-06-22T12:13:25;10.32;;;7.90;;
25073;SDS011;13066;52.042;5.648;2023-06-22T12:15:53;12.10;;;8.10;;
25073;SDS011;13066;52.042;5.648;2023-06-22T12:18:22;14.02;;;8.18;;
25073;SDS011;13066;52.042;5.648;2023-06-22T12:20:51;12.75;;;8.00;;
25073;SDS011;13066;52.042;5.648;2023-06-22T12:23:18;11.43;;;7.97;;
25073;SDS011;13066;52.042;5.648;2023-06-22T12:25:47;12.52;;;8.60;;
25073;SDS011;13066;52.042;5.648;2023-06-22T12:28:14;16.15;;;8.00;;
25073;SDS011;13066;52.042;5.648;2023-06-22T12:30:42;14.63;;;8.52;;
25073;SDS011;13066;52.042;5.648;2023-06-22T12:33:11;9.90;;;6.95;;
25073;SDS011;13066;52.042;5.648;2023-06-22T12:35:40;12.25;;;7.85;;
25073;SDS011;13066;52.042;5.648;2023-06-22T12:38:08;13.20;;;8.73;;
25073;SDS011;13066;52.042;5.648;2023-06-22T12:40:36;12.57;;;8.52;;
25073;SDS011;13066;52.042;5.648;2023-06-22T12:43:04;10.88;;;7.82;;
25073;SDS011;13066;52.042;5.648;2023-06-22T12:45:34;12.60;;;8.38;;
25073;SDS011;13066;52.042;5.648;2023-06-22T12:48:02;12.18;;;8.25;;
25073;SDS011;13066;52.042;5.648;2023-06-22T12:50:30;12.18;;;8.38;;
25073;SDS011;13066;52.042;5.648;2023-06-22T12:52:59;9.77;;;7.60;;
25073;SDS011;13066;52.042;5.648;2023-06-22T12:55:29;13.90;;;7.97;;
25073;SDS011;13066;52.042;5.648;2023-06-22T12:57:57;11.35;;;7.80;;
25073;SDS011;13066;52.042;5.648;2023-06-22T13:00:25;13.30;;;8.68;;
25073;SDS011;13066;52.042;5.648;2023-06-22T13:02:53;13.52;;;8.65;;
25073;SDS011;13066;52.042;5.648;2023-06-22T13:05:22;15.15;;;9.23;;
25073;SDS011;13066;52.042;5.648;2023-06-22T13:07:50;15.18;;;9.73;;
25073;SDS011;13066;52.042;5.648;2023-06-22T13:10:20;13.88;;;10.13;;
25073;SDS011;13066;52.042;5.648;2023-06-22T13:12:47;15.32;;;9.45;;
25073;SDS011;13066;52.042;5.648;2023-06-22T13:15:15;14.27;;;9.13;;
25073;SDS011;13066;52.042;5.648;2023-06-22T13:17:43;14.55;;;10.60;;
25073;SDS011;13066;52.042;5.648;2023-06-22T13:20:11;17.02;;;9.65;;
25073;SDS011;13066;52.042;5.648;2023-06-22T13:22:39;15.50;;;10.18;;
25073;SDS011;13066;52.042;5.648;2023-06-22T13:25:10;17.40;;;10.93;;
25073;SDS011;13066;52.042;5.648;2023-06-22T13:27:41;12.52;;;9.80;;
25073;SDS011;13066;52.042;5.648;2023-06-22T13:30:09;14.35;;;9.75;;
25073;SDS011;13066;52.042;5.648;2023-06-22T13:32:40;15.25;;;10.05;;
25073;SDS011;13066;52.042;5.648;2023-06-22T13:35:09;14.27;;;10.25;;
25073;SDS011;13066;52.042;5.648;2023-06-22T13:37:37;14.48;;;11.15;;
25073;SDS011;13066;52.042;5.648;2023-06-22T13:40:06;15.75;;;10.93;;
25073;SDS011;13066;52.042;5.648;2023-06-22T13:42:35;13.65;;;10.20;;
25073;SDS011;13066;52.042;5.648;2023-06-22T13:45:05;17.40;;;10.68;;
25073;SDS011;13066;52.042;5.648;2023-06-22T13:47:34;11.93;;;9.90;;
25073;SDS011;13066;52.042;5.648;2023-06-22T13:50:03;14.63;;;10.75;;
25073;SDS011;13066;52.042;5.648;2023-06-22T13:52:31;14.32;;;11.35;;
25073;SDS011;13066;52.042;5.648;2023-06-22T13:54:59;16.80;;;10.25;;
25073;SDS011;13066;52.042;5.648;2023-06-22T13:57:27;13.93;;;10.05;;
25073;SDS011;13066;52.042;5.648;2023-06-22T13:59:55;16.23;;;10.85;;
25073;SDS011;13066;52.042;5.648;2023-06-22T14:02:25;13.00;;;10.23;;
25073;SDS011;13066;52.042;5.648;2023-06-22T14:04:54;21.17;;;12.32;;
25073;SDS011;13066;52.042;5.648;2023-06-22T14:07:22;17.75;;;12.30;;
25073;SDS011;13066;52.042;5.648;2023-06-22T14:09:50;16.02;;;11.88;;
25073;SDS011;13066;52.042;5.648;2023-06-22T14:12:18;18.30;;;13.60;;
25073;SDS011;13066;52.042;5.648;2023-06-22T14:14:47;16.40;;;12.93;;
25073;SDS011;13066;52.042;5.648;2023-06-22T14:17:14;15.63;;;12.23;;
25073;SDS011;13066;52.042;5.648;2023-06-22T14:19:44;18.40;;;12.55;;
25073;SDS011;13066;52.042;5.648;2023-06-22T14:22:12;17.52;;;13.77;;
25073;SDS011;13066;52.042;5.648;2023-06-22T14:24:40;18.63;;;12.30;;
25073;SDS011;13066;52.042;5.648;2023-06-22T14:27:08;18.50;;;13.77;;
25073;SDS011;13066;52.042;5.648;2023-06-22T14:29:36;20.17;;;13.85;;
25073;SDS011;13066;52.042;5.648;2023-06-22T14:32:04;15.95;;;14.07;;
25073;SDS011;13066;52.042;5.648;2023-06-22T14:34:33;17.40;;;12.27;;
25073;SDS011;13066;52.042;5.648;2023-06-22T14:37:04;43.10;;;27.27;;
25073;SDS011;13066;52.042;5.648;2023-06-22T14:39:33;27.38;;;19.60;;
25073;SDS011;13066;52.042;5.648;2023-06-22T14:42:02;23.92;;;18.40;;
25073;SDS011;13066;52.042;5.648;2023-06-22T14:44:30;22.83;;;15.70;;
25073;SDS011;13066;52.042;5.648;2023-06-22T14:46:58;21.23;;;17.05;;